createdAt,value
2022-08-18T00:02:08.798Z,21.15
2022-08-18T00:04:48.640Z,18.40
2022-08-18T00:07:23.119Z,19.17
2022-08-18T00:09:52.334Z,19.40
2022-08-18T00:12:25.818Z,20.73
2022-08-18T00:14:55.270Z,17.45
2022-08-18T00:17:24.782Z,21.80
2022-08-18T00:19:53.035Z,18.90
2022-08-18T00:22:24.156Z,17.80
2022-08-18T00:24:55.955Z,16.42
2022-08-18T00:27:28.681Z,19.42
2022-08-18T00:30:01.419Z,15.95
2022-08-18T00:32:34.129Z,15.07
2022-08-18T00:35:09.412Z,15.27
2022-08-18T00:37:39.393Z,15.18
2022-08-18T00:40:11.930Z,15.13
2022-08-18T00:42:47.428Z,16.05
2022-08-18T00:45:20.370Z,13.25
2022-08-18T00:47:48.746Z,15.05
2022-08-18T00:50:23.483Z,16.02
2022-08-18T00:52:59.808Z,15.20
2022-08-18T00:55:31.241Z,15.77
2022-08-18T00:58:08.741Z,13.23
2022-08-18T01:00:38.146Z,15.18
2022-08-18T01:03:13.821Z,16.02
2022-08-18T01:05:52.313Z,16.73
2022-08-18T01:08:29.328Z,11.48
2022-08-18T01:11:01.698Z,16.17
2022-08-18T01:13:33.989Z,13.32
2022-08-18T01:16:23.947Z,15.10
2022-08-18T01:19:10.130Z,17.10
2022-08-18T01:21:53.452Z,14.25
2022-08-18T01:24:42.754Z,17.50
2022-08-18T01:27:18.767Z,15.35
2022-08-18T01:29:48.601Z,15.68
2022-08-18T01:32:22.189Z,13.15
2022-08-18T01:34:54.966Z,13.23
2022-08-18T01:37:26.451Z,15.15
2022-08-18T01:41:22.838Z,13.25
2022-08-18T01:42:46.667Z,16.15
2022-08-18T01:45:17.841Z,13.23
2022-08-18T01:47:58.087Z,14.38
2022-08-18T01:50:27.665Z,14.65
2022-08-18T01:52:56.030Z,14.45
2022-08-18T01:55:28.319Z,14.77
2022-08-18T01:57:57.341Z,13.70
2022-08-18T02:00:26.361Z,14.23
2022-08-18T02:02:57.937Z,15.57
2022-08-18T02:05:37.476Z,12.38
2022-08-18T02:08:08.261Z,13.27
2022-08-18T02:10:38.592Z,12.43
2022-08-18T02:13:07.541Z,12.07
2022-08-18T02:15:36.606Z,11.35
2022-08-18T02:18:05.115Z,13.55
2022-08-18T02:20:33.460Z,11.40
2022-08-18T02:23:03.430Z,12.38
2022-08-18T02:25:32.039Z,13.02
2022-08-18T02:28:01.819Z,12.57
2022-08-18T02:30:30.115Z,12.30
2022-08-18T02:32:59.230Z,11.20
2022-08-18T02:35:27.569Z,11.68
2022-08-18T02:37:55.843Z,9.85
2022-08-18T02:40:24.189Z,12.10
2022-08-18T02:42:54.324Z,10.80
2022-08-18T02:45:24.513Z,13.05
2022-08-18T02:47:54.831Z,9.82
2022-08-18T02:50:24.978Z,10.73
2022-08-18T02:52:54.292Z,12.07
2022-08-18T02:55:22.743Z,13.80
2022-08-18T02:57:51.172Z,10.65
2022-08-18T03:00:20.725Z,12.00
2022-08-18T03:02:53.495Z,11.10
2022-08-18T03:05:22.042Z,13.40
2022-08-18T03:07:51.034Z,12.38
2022-08-18T03:10:31.450Z,10.82
2022-08-18T03:13:02.247Z,11.07
2022-08-18T03:15:30.708Z,10.85
2022-08-18T03:18:01.204Z,13.82
2022-08-18T03:20:30.346Z,13.23
2022-08-18T03:23:04.753Z,12.00
2022-08-18T03:25:44.604Z,13.82
2022-08-18T03:28:13.370Z,14.85
2022-08-18T03:30:42.113Z,14.07
2022-08-18T03:33:11.785Z,15.00
2022-08-18T03:35:41.596Z,14.45
2022-08-18T03:38:10.425Z,15.95
2022-08-18T03:40:38.804Z,13.20
2022-08-18T03:43:50.135Z,12.63
2022-08-18T03:45:56.763Z,13.45
2022-08-18T03:48:26.503Z,14.10
2022-08-18T03:50:54.827Z,16.63
2022-08-18T03:53:23.141Z,16.40
2022-08-18T03:55:51.434Z,15.15
2022-08-18T03:58:19.778Z,16.33
2022-08-18T04:00:48.106Z,14.82
2022-08-18T04:03:16.351Z,15.45
2022-08-18T04:05:47.714Z,18.52
2022-08-18T04:08:16.237Z,15.15
2022-08-18T04:10:45.766Z,15.93
2022-08-18T04:13:14.095Z,17.98
2022-08-18T04:15:42.361Z,15.70
2022-08-18T04:18:12.114Z,19.50
2022-08-18T04:20:59.453Z,20.20
2022-08-18T04:23:30.089Z,17.38
2022-08-18T04:26:11.201Z,15.77
2022-08-18T04:28:47.798Z,17.60
2022-08-18T04:31:18.172Z,17.70
2022-08-18T04:33:46.476Z,18.60
2022-08-18T04:36:20.602Z,19.00
2022-08-18T04:38:50.925Z,17.13
2022-08-18T04:41:20.276Z,22.83
2022-08-18T04:43:52.613Z,19.00
2022-08-18T04:46:24.097Z,19.73
2022-08-18T04:48:58.794Z,18.55
2022-08-18T04:52:22.631Z,17.33
2022-08-18T04:54:19.271Z,16.63
2022-08-18T04:56:47.539Z,17.45
2022-08-18T04:59:16.387Z,21.58
2022-08-18T05:01:48.041Z,19.42
2022-08-18T05:04:18.867Z,20.45
2022-08-18T05:06:47.790Z,18.20
2022-08-18T05:09:22.959Z,20.95
2022-08-18T05:11:52.931Z,22.50
2022-08-18T05:14:21.823Z,22.00
2022-08-18T05:16:51.816Z,23.88
2022-08-18T05:19:25.939Z,19.17
2022-08-18T05:21:59.670Z,21.35
2022-08-18T05:24:37.523Z,20.35
2022-08-18T05:27:08.131Z,23.17
2022-08-18T05:29:41.557Z,24.58
2022-08-18T05:32:40.895Z,20.70
2022-08-18T05:35:07.866Z,18.20
2022-08-18T05:37:53.221Z,20.83
2022-08-18T05:40:25.502Z,17.65
2022-08-18T05:42:59.603Z,20.33
2022-08-18T05:45:28.745Z,18.50
2022-08-18T05:48:01.242Z,20.90
2022-08-18T05:50:36.448Z,18.75
2022-08-18T05:53:14.040Z,21.83
2022-08-18T05:56:19.763Z,21.08
2022-08-18T05:58:55.705Z,20.23
2022-08-18T06:01:36.282Z,17.83
2022-08-18T06:04:16.980Z,19.63
2022-08-18T06:06:47.994Z,18.40
2022-08-18T06:09:25.033Z,17.38
2022-08-18T06:12:00.066Z,17.73
2022-08-18T06:14:30.412Z,17.02
2022-08-18T06:17:32.011Z,16.95
2022-08-18T06:20:14.316Z,17.55
2022-08-18T06:22:56.443Z,19.95
2022-08-18T06:25:35.151Z,15.65
2022-08-18T06:28:10.895Z,18.67
2022-08-18T06:30:58.664Z,17.58
2022-08-18T06:33:55.147Z,19.38
2022-08-18T06:36:38.283Z,17.88
2022-08-18T06:39:23.814Z,17.02
2022-08-18T06:41:54.743Z,16.55
2022-08-18T06:44:32.791Z,18.33
2022-08-18T06:47:15.504Z,16.52
2022-08-18T06:49:51.325Z,15.63
2022-08-18T06:52:27.074Z,16.60
2022-08-18T06:54:58.669Z,15.45
2022-08-18T06:57:34.707Z,17.02
2022-08-18T07:00:11.298Z,18.35
2022-08-18T07:02:54.330Z,14.52
2022-08-18T07:05:27.749Z,15.75
2022-08-18T07:08:12.477Z,16.88
2022-08-18T07:10:43.668Z,16.42
2022-08-18T07:13:27.086Z,15.65
2022-08-18T07:16:18.569Z,15.13
2022-08-18T07:19:07.142Z,15.43
2022-08-18T07:21:40.774Z,13.63
2022-08-18T07:24:24.954Z,15.52
2022-08-18T07:27:03.810Z,16.58
2022-08-18T07:29:35.453Z,15.35
2022-08-18T07:32:20.806Z,15.75
2022-08-18T07:34:58.361Z,15.52
2022-08-18T07:37:33.549Z,19.70
2022-08-18T07:40:14.955Z,16.40
2022-08-18T07:43:00.825Z,23.70
2022-08-18T07:45:38.262Z,17.20
2022-08-18T07:48:37.612Z,16.63
2022-08-18T07:51:18.731Z,16.33
2022-08-18T07:54:00.514Z,19.42
2022-08-18T07:56:50.478Z,16.92
2022-08-18T07:59:30.658Z,14.82
2022-08-18T08:02:22.825Z,15.55
2022-08-18T08:05:05.139Z,13.20
2022-08-18T08:07:52.671Z,11.82
2022-08-18T08:10:35.253Z,11.82
2022-08-18T08:13:43.707Z,12.20
2022-08-18T08:16:21.070Z,10.80
2022-08-18T08:19:12.177Z,9.50
2022-08-18T08:21:52.810Z,9.65
2022-08-18T08:24:40.794Z,9.50
2022-08-18T08:27:21.760Z,10.25
2022-08-18T08:30:08.426Z,8.25
2022-08-18T08:32:44.239Z,9.05
2022-08-18T08:35:50.159Z,9.88
2022-08-18T08:38:39.283Z,8.23
2022-08-18T08:41:13.263Z,9.73
2022-08-18T08:43:47.057Z,10.63
2022-08-18T08:46:22.228Z,9.57
2022-08-18T08:49:00.803Z,7.30
2022-08-18T08:51:41.023Z,7.80
2022-08-18T08:54:18.265Z,7.75
2022-08-18T08:56:51.913Z,7.80
2022-08-18T08:59:25.078Z,6.97
2022-08-18T09:02:27.115Z,6.53
2022-08-18T09:05:11.290Z,6.97
2022-08-18T09:08:05.665Z,9.27
2022-08-18T09:11:11.785Z,7.70
2022-08-18T09:14:16.100Z,7.25
2022-08-18T09:17:09.250Z,6.90
2022-08-18T09:20:03.792Z,8.57
2022-08-18T09:22:48.684Z,8.23
2022-08-18T09:25:44.334Z,11.13
2022-08-18T09:28:17.191Z,8.90
2022-08-18T09:31:14.624Z,6.72
2022-08-18T09:34:28.374Z,7.00
2022-08-18T09:37:12.341Z,7.10
2022-08-18T09:40:11.241Z,9.60
2022-08-18T09:42:50.567Z,6.40
2022-08-18T09:45:54.594Z,10.30
2022-08-18T09:48:31.915Z,7.75
2022-08-18T09:51:24.593Z,8.40
2022-08-18T09:54:14.510Z,7.45
2022-08-18T09:57:24.360Z,8.25
2022-08-18T10:00:33.454Z,7.10
2022-08-18T10:03:25.900Z,9.00
2022-08-18T10:06:28.867Z,6.68
2022-08-18T10:09:37.491Z,7.40
2022-08-18T10:12:37.320Z,6.40
2022-08-18T10:15:35.644Z,7.05
2022-08-18T10:18:30.342Z,6.50
2022-08-18T10:21:11.072Z,9.35
2022-08-18T10:24:31.541Z,7.30
2022-08-18T10:27:38.046Z,7.88
2022-08-18T10:30:30.508Z,6.68
2022-08-18T10:33:17.069Z,8.63
2022-08-18T10:36:04.813Z,7.28
2022-08-18T10:38:53.534Z,8.27
2022-08-18T10:41:30.685Z,7.50
2022-08-18T10:44:10.576Z,7.45
2022-08-18T10:46:53.259Z,6.93
2022-08-18T10:49:27.912Z,7.97
2022-08-18T10:55:50.181Z,6.55
2022-08-18T10:58:59.454Z,6.68
2022-08-18T11:02:09.282Z,6.57
2022-08-18T11:04:46.899Z,6.60
2022-08-18T11:07:33.968Z,6.30
2022-08-18T11:10:32.508Z,7.65
2022-08-18T11:13:21.745Z,5.90
2022-08-18T11:16:13.658Z,6.25
2022-08-18T11:18:46.305Z,6.20
2022-08-18T11:21:43.878Z,7.57
2022-08-18T11:24:17.847Z,6.80
2022-08-18T11:26:52.625Z,8.23
2022-08-18T11:29:32.423Z,6.18
2022-08-18T11:32:10.358Z,7.30
2022-08-18T11:34:51.918Z,6.00
2022-08-18T11:37:27.514Z,14.73
2022-08-18T11:39:59.568Z,6.63
2022-08-18T11:42:33.697Z,6.95
2022-08-18T11:45:28.024Z,6.70
2022-08-18T11:48:23.694Z,6.65
2022-08-18T11:51:04.190Z,6.50
2022-08-18T11:56:41.392Z,7.07
2022-08-18T11:59:53.004Z,6.55
2022-08-18T12:02:26.773Z,6.20
2022-08-18T12:05:10.259Z,6.80
2022-08-18T12:07:57.952Z,6.90
2022-08-18T12:10:29.595Z,7.10
2022-08-18T12:13:01.282Z,6.90
2022-08-18T12:15:44.166Z,7.38
2022-08-18T12:18:28.714Z,8.60
2022-08-18T12:20:59.282Z,7.18
2022-08-18T12:23:39.133Z,9.02
2022-08-18T12:26:27.414Z,7.22
2022-08-18T12:29:08.643Z,6.25
2022-08-18T12:31:47.684Z,6.10
2022-08-18T12:34:26.370Z,7.05
2022-08-18T12:37:00.998Z,7.40
2022-08-18T12:39:30.954Z,7.03
2022-08-18T12:42:00.704Z,6.28
2022-08-18T12:44:29.814Z,6.90
2022-08-18T12:49:48.400Z,6.93
2022-08-18T12:52:20.527Z,8.43
2022-08-18T12:54:55.667Z,9.70
2022-08-18T12:57:52.273Z,6.85
2022-08-18T13:00:18.585Z,6.63
2022-08-18T13:02:47.241Z,6.55
2022-08-18T13:05:17.545Z,6.10
2022-08-18T13:07:55.235Z,6.15
2022-08-18T13:10:43.065Z,6.53
2022-08-18T13:13:15.650Z,6.78
2022-08-18T13:15:55.557Z,6.20
2022-08-18T13:18:29.531Z,6.30
2022-08-18T13:21:00.413Z,6.70
2022-08-18T13:23:29.390Z,6.28
2022-08-18T13:26:01.987Z,8.30
2022-08-18T13:28:36.165Z,6.80
2022-08-18T13:31:23.446Z,6.70
2022-08-18T13:33:56.118Z,8.02
2022-08-18T13:36:44.419Z,6.30
2022-08-18T13:39:16.894Z,7.50
2022-08-18T13:41:47.677Z,8.07
2022-08-18T13:44:19.862Z,6.32
2022-08-18T13:46:49.603Z,7.28
2022-08-18T13:49:24.045Z,6.10
2022-08-18T13:52:00.981Z,7.32
2022-08-18T13:54:35.989Z,5.10
2022-08-18T13:57:06.644Z,8.10
2022-08-18T13:59:35.142Z,6.38
2022-08-18T14:02:10.813Z,7.07
2022-08-18T14:04:40.438Z,6.03
2022-08-18T14:07:18.676Z,6.65
2022-08-18T14:09:47.382Z,5.40
2022-08-18T14:12:24.472Z,6.28
2022-08-18T14:14:57.771Z,7.57
2022-08-18T14:17:28.159Z,5.63
2022-08-18T14:20:14.897Z,9.30
2022-08-18T14:23:09.698Z,5.82
2022-08-18T14:25:55.902Z,7.90
2022-08-18T14:28:24.673Z,5.30
2022-08-18T14:30:55.281Z,6.45
2022-08-18T14:33:49.732Z,7.75
2022-08-18T14:36:17.044Z,6.97
2022-08-18T14:38:51.484Z,6.72
2022-08-18T14:41:20.899Z,7.60
2022-08-18T14:44:12.580Z,5.93
2022-08-18T14:46:52.087Z,5.72
2022-08-18T14:49:28.205Z,6.22
2022-08-18T14:51:57.893Z,7.40
2022-08-18T14:54:28.716Z,8.85
2022-08-18T14:56:58.721Z,6.70
2022-08-18T14:59:28.479Z,7.30
2022-08-18T15:01:57.002Z,8.82
2022-08-18T15:04:25.521Z,6.40
2022-08-18T15:06:55.977Z,10.77
2022-08-18T15:09:27.719Z,8.73
2022-08-18T15:11:58.455Z,7.03
2022-08-18T15:14:33.177Z,7.50
2022-08-18T15:17:13.168Z,10.00
2022-08-18T15:20:00.165Z,9.23
2022-08-18T15:22:47.802Z,7.72
2022-08-18T15:25:36.402Z,9.35
2022-08-18T15:28:06.155Z,12.60
2022-08-18T15:30:46.816Z,8.52
2022-08-18T15:33:25.287Z,8.55
2022-08-18T15:35:57.386Z,7.35
2022-08-18T15:38:26.307Z,8.27
2022-08-18T15:41:00.181Z,8.25
2022-08-18T15:43:34.483Z,7.93
2022-08-18T15:46:08.534Z,8.07
2022-08-18T15:48:36.887Z,7.68
2022-08-18T15:51:11.694Z,7.35
2022-08-18T15:53:44.960Z,7.65
2022-08-18T15:56:20.889Z,9.27
2022-08-18T15:58:50.270Z,6.60
2022-08-18T16:01:32.532Z,8.95
2022-08-18T16:04:03.154Z,11.30
2022-08-18T16:06:33.384Z,11.82
2022-08-18T16:09:05.514Z,9.10
2022-08-18T16:11:35.128Z,6.97
2022-08-18T16:14:03.350Z,9.95
2022-08-18T16:16:36.009Z,11.85
2022-08-18T16:19:05.830Z,7.07
2022-08-18T16:21:34.449Z,9.43
2022-08-18T16:24:02.683Z,7.15
2022-08-18T16:26:31.627Z,9.00
2022-08-18T16:29:02.062Z,7.97
2022-08-18T16:31:30.971Z,7.10
2022-08-18T16:33:59.570Z,7.85
2022-08-18T16:36:27.947Z,7.38
2022-08-18T16:38:58.342Z,8.25
2022-08-18T16:41:28.163Z,8.75
2022-08-18T16:43:56.621Z,8.18
2022-08-18T16:46:28.989Z,8.95
2022-08-18T16:48:59.486Z,9.85
2022-08-18T16:51:29.999Z,9.27
2022-08-18T16:53:58.667Z,8.40
2022-08-18T16:56:30.823Z,10.93
2022-08-18T16:59:17.242Z,8.80
2022-08-18T17:02:04.603Z,8.50
2022-08-18T17:04:34.585Z,9.82
2022-08-18T17:07:05.605Z,8.65
2022-08-18T17:09:35.837Z,8.65
2022-08-18T17:12:05.216Z,10.77
2022-08-18T17:14:34.824Z,8.57
2022-08-18T17:17:07.680Z,8.57
2022-08-18T17:19:37.560Z,10.70
2022-08-18T17:22:08.141Z,10.25
2022-08-18T17:24:37.675Z,8.80
2022-08-18T17:27:26.363Z,8.60
2022-08-18T17:30:05.384Z,8.15
2022-08-18T17:32:46.640Z,8.63
2022-08-18T17:35:23.462Z,13.80
2022-08-18T17:38:04.724Z,8.13
2022-08-18T17:40:40.493Z,9.57
2022-08-18T17:43:16.649Z,7.97
2022-08-18T17:45:50.129Z,8.32
2022-08-18T17:48:28.306Z,10.48
2022-08-18T17:51:22.232Z,13.95
2022-08-18T17:53:50.679Z,10.40
2022-08-18T17:56:35.479Z,9.00
2022-08-18T17:59:42.943Z,8.23
2022-08-18T18:02:29.875Z,10.98
2022-08-18T18:05:06.413Z,11.75
2022-08-18T18:07:41.662Z,7.72
2022-08-18T18:10:16.448Z,7.57
2022-08-18T18:12:45.872Z,9.75
2022-08-18T18:15:31.278Z,8.07
2022-08-18T18:18:20.901Z,8.30
2022-08-18T18:21:06.393Z,9.32
2022-08-18T18:23:41.692Z,8.32
2022-08-18T18:26:30.547Z,7.78
2022-08-18T18:29:20.634Z,7.20
2022-08-18T18:32:01.613Z,8.23
2022-08-18T18:34:39.610Z,8.68
2022-08-18T18:37:28.693Z,7.63
2022-08-18T18:40:01.211Z,8.98
2022-08-18T18:42:32.782Z,8.48
2022-08-18T18:45:09.292Z,8.35
2022-08-18T18:47:55.939Z,8.63
2022-08-18T18:50:37.410Z,10.25
2022-08-18T18:53:28.751Z,8.88
2022-08-18T18:56:08.368Z,10.20
2022-08-18T18:58:58.387Z,10.15
2022-08-18T19:01:39.988Z,11.20
2022-08-18T19:04:19.545Z,8.98
2022-08-18T19:06:55.428Z,7.95
2022-08-18T19:09:34.477Z,8.85
2022-08-18T19:12:16.850Z,9.32
2022-08-18T19:14:59.690Z,10.88
2022-08-18T19:17:37.498Z,8.68
2022-08-18T19:20:12.735Z,10.00
2022-08-18T19:22:54.370Z,13.45
2022-08-18T19:25:29.600Z,10.90
2022-08-18T19:28:08.084Z,10.30
2022-08-18T19:30:42.787Z,11.52
2022-08-18T19:33:24.781Z,10.88
2022-08-18T19:36:04.052Z,9.52
2022-08-18T19:38:43.070Z,10.38
2022-08-18T19:41:30.635Z,11.63
2022-08-18T19:44:09.490Z,14.73
2022-08-18T19:46:45.250Z,14.05
2022-08-18T19:49:25.802Z,15.15
2022-08-18T19:52:00.472Z,17.83
2022-08-18T19:54:46.850Z,16.08
2022-08-18T19:58:01.363Z,16.85
2022-08-18T20:00:42.950Z,16.13
2022-08-18T20:03:47.141Z,17.40
2022-08-18T20:06:45.665Z,17.05
2022-08-18T20:09:56.186Z,17.98
2022-08-18T20:12:56.691Z,16.52
2022-08-18T20:15:28.438Z,16.35
2022-08-18T20:18:21.519Z,16.17
2022-08-18T20:21:32.734Z,15.43
2022-08-18T20:24:38.379Z,16.02
2022-08-18T20:27:37.957Z,16.15
2022-08-18T20:30:32.059Z,17.45
2022-08-18T20:33:21.123Z,15.82
2022-08-18T20:36:04.168Z,19.55
2022-08-18T20:38:36.614Z,15.57
2022-08-18T20:41:47.232Z,17.63
2022-08-18T20:44:44.425Z,17.55
2022-08-18T20:47:45.725Z,15.60
2022-08-18T20:50:50.775Z,15.55
2022-08-18T20:53:50.177Z,16.80
2022-08-18T20:56:43.149Z,18.75
2022-08-18T20:59:20.495Z,17.25
2022-08-18T21:01:59.889Z,17.65
2022-08-18T21:04:48.345Z,18.40
2022-08-18T21:07:36.445Z,20.08
2022-08-18T21:10:19.023Z,21.38
2022-08-18T21:12:53.532Z,18.70
2022-08-18T21:15:28.144Z,20.55
2022-08-18T21:18:02.031Z,20.30
2022-08-18T21:20:31.739Z,20.17
2022-08-18T21:23:07.044Z,20.55
2022-08-18T21:25:36.402Z,20.45
2022-08-18T21:28:07.057Z,22.23
2022-08-18T21:30:38.036Z,21.05
2022-08-18T21:33:21.135Z,19.92
2022-08-18T21:35:49.437Z,21.77
2022-08-18T21:38:28.885Z,27.40
2022-08-18T21:41:01.593Z,20.83
2022-08-18T21:43:49.198Z,22.55
2022-08-18T21:46:29.082Z,21.17
2022-08-18T21:49:02.486Z,18.48
2022-08-18T21:51:37.201Z,21.35
2022-08-18T21:54:05.700Z,21.63
2022-08-18T21:56:38.187Z,20.88
2022-08-18T21:59:10.640Z,23.10
2022-08-18T22:01:50.673Z,23.20
2022-08-18T22:04:28.653Z,21.85
2022-08-18T22:07:01.252Z,21.45
2022-08-18T22:09:53.038Z,21.05
2022-08-18T22:12:49.111Z,24.60
2022-08-18T22:15:22.111Z,23.92
2022-08-18T22:17:58.890Z,26.08
2022-08-18T22:20:48.088Z,27.30
2022-08-18T22:23:56.492Z,30.70
2022-08-18T22:26:29.124Z,28.27
2022-08-18T22:29:03.193Z,29.60
2022-08-18T22:31:34.212Z,27.27
2022-08-18T22:34:08.282Z,30.55
2022-08-18T22:36:40.718Z,31.00
2022-08-18T22:39:14.495Z,36.55
2022-08-18T22:41:46.224Z,35.28
2022-08-18T22:44:14.567Z,35.33
2022-08-18T22:46:42.977Z,37.03
2022-08-18T22:49:12.638Z,36.58
2022-08-18T22:51:40.937Z,37.00
2022-08-18T22:54:10.998Z,38.42
2022-08-18T22:56:39.608Z,35.95
2022-08-18T22:59:22.686Z,40.03
2022-08-18T23:01:52.205Z,36.53
2022-08-18T23:04:25.467Z,35.20
2022-08-18T23:06:55.584Z,41.08
2022-08-18T23:09:27.802Z,39.00
2022-08-18T23:11:59.605Z,36.63
2022-08-18T23:14:28.957Z,35.17
2022-08-18T23:16:57.206Z,40.03
2022-08-18T23:19:28.027Z,40.22
2022-08-18T23:21:56.429Z,37.88
2022-08-18T23:24:24.946Z,38.67
2022-08-18T23:26:53.748Z,36.42
2022-08-18T23:29:23.592Z,37.63
2022-08-18T23:31:53.350Z,38.03
2022-08-18T23:34:27.310Z,37.35
2022-08-18T23:37:00.970Z,39.30
2022-08-18T23:39:32.722Z,34.00
2022-08-18T23:42:01.590Z,34.92
2022-08-18T23:44:30.940Z,35.67
2022-08-18T23:47:00.487Z,36.65
2022-08-18T23:49:31.510Z,30.85
2022-08-18T23:52:01.268Z,32.92
2022-08-18T23:54:33.400Z,32.60
2022-08-18T23:57:01.735Z,29.20
2022-08-18T23:59:30.852Z,29.15
